sensor_id;sensor_type;location;lat;lon;timestamp;temperature;humidity
4324;DHT22;2175;51.018;6.994;2023-02-11T00:01:50;6.90;99.90
4324;DHT22;2175;51.018;6.994;2023-02-11T00:04:16;6.90;99.90
4324;DHT22;2175;51.018;6.994;2023-02-11T00:06:41;6.90;99.90
4324;DHT22;2175;51.018;6.994;2023-02-11T00:09:08;6.70;99.90
4324;DHT22;2175;51.018;6.994;2023-02-11T00:11:34;6.60;99.90
4324;DHT22;2175;51.018;6.994;2023-02-11T00:14:03;6.70;99.90
4324;DHT22;2175;51.018;6.994;2023-02-11T00:16:30;6.50;99.90
4324;DHT22;2175;51.018;6.994;2023-02-11T00:18:58;6.50;99.90
4324;DHT22;2175;51.018;6.994;2023-02-11T00:21:25;6.60;99.90
4324;DHT22;2175;51.018;6.994;2023-02-11T00:23:51;6.60;99.90
4324;DHT22;2175;51.018;6.994;2023-02-11T00:26:20;6.70;99.90
4324;DHT22;2175;51.018;6.994;2023-02-11T00:28:48;6.70;99.90
4324;DHT22;2175;51.018;6.994;2023-02-11T00:31:15;6.70;99.90
4324;DHT22;2175;51.018;6.994;2023-02-11T00:33:41;6.70;99.90
4324;DHT22;2175;51.018;6.994;2023-02-11T00:36:16;6.70;99.90
4324;DHT22;2175;51.018;6.994;2023-02-11T00:38:43;6.80;99.90
4324;DHT22;2175;51.018;6.994;2023-02-11T00:41:09;6.80;99.90
4324;DHT22;2175;51.018;6.994;2023-02-11T00:43:35;6.90;99.90
4324;DHT22;2175;51.018;6.994;2023-02-11T00:46:01;6.90;99.90
4324;DHT22;2175;51.018;6.994;2023-02-11T00:48:26;6.90;99.90
4324;DHT22;2175;51.018;6.994;2023-02-11T00:50:52;6.80;99.90
4324;DHT22;2175;51.018;6.994;2023-02-11T00:53:18;6.80;99.90
4324;DHT22;2175;51.018;6.994;2023-02-11T00:55:43;6.80;99.90
4324;DHT22;2175;51.018;6.994;2023-02-11T00:58:09;6.70;99.90
4324;DHT22;2175;51.018;6.994;2023-02-11T01:00:35;6.80;99.90
4324;DHT22;2175;51.018;6.994;2023-02-11T01:03:00;6.80;99.90
4324;DHT22;2175;51.018;6.994;2023-02-11T01:05:26;6.70;99.90
4324;DHT22;2175;51.018;6.994;2023-02-11T01:07:51;6.80;99.90
4324;DHT22;2175;51.018;6.994;2023-02-11T01:10:17;6.90;99.90
4324;DHT22;2175;51.018;6.994;2023-02-11T01:12:43;6.80;99.90
4324;DHT22;2175;51.018;6.994;2023-02-11T01:15:11;6.80;99.90
4324;DHT22;2175;51.018;6.994;2023-02-11T01:17:37;6.70;99.90
4324;DHT22;2175;51.018;6.994;2023-02-11T01:20:12;6.70;99.90
4324;DHT22;2175;51.018;6.994;2023-02-11T01:22:38;6.70;99.90
4324;DHT22;2175;51.018;6.994;2023-02-11T01:25:05;6.80;99.90
4324;DHT22;2175;51.018;6.994;2023-02-11T01:27:31;6.80;99.90
4324;DHT22;2175;51.018;6.994;2023-02-11T01:29:57;6.80;99.90
4324;DHT22;2175;51.018;6.994;2023-02-11T01:32:23;6.70;99.90
4324;DHT22;2175;51.018;6.994;2023-02-11T01:34:48;6.80;99.90
4324;DHT22;2175;51.018;6.994;2023-02-11T01:37:14;6.80;99.90
4324;DHT22;2175;51.018;6.994;2023-02-11T01:39:40;6.80;99.90
4324;DHT22;2175;51.018;6.994;2023-02-11T01:42:05;6.80;99.90
4324;DHT22;2175;51.018;6.994;2023-02-11T01:44:34;6.90;99.90
4324;DHT22;2175;51.018;6.994;2023-02-11T01:47:00;6.70;99.90
4324;DHT22;2175;51.018;6.994;2023-02-11T01:49:35;6.70;99.90
4324;DHT22;2175;51.018;6.994;2023-02-11T01:52:08;6.70;99.90
4324;DHT22;2175;51.018;6.994;2023-02-11T01:54:41;6.70;99.90
4324;DHT22;2175;51.018;6.994;2023-02-11T01:57:29;6.60;99.90
4324;DHT22;2175;51.018;6.994;2023-02-11T02:00:14;6.50;99.90
4324;DHT22;2175;51.018;6.994;2023-02-11T02:03:17;6.60;99.90
4324;DHT22;2175;51.018;6.994;2023-02-11T02:06:02;6.50;99.90
4324;DHT22;2175;51.018;6.994;2023-02-11T02:08:50;6.50;99.90
4324;DHT22;2175;51.018;6.994;2023-02-11T02:11:16;6.50;99.90
4324;DHT22;2175;51.018;6.994;2023-02-11T02:13:42;6.50;99.90
4324;DHT22;2175;51.018;6.994;2023-02-11T02:16:14;6.50;99.90
4324;DHT22;2175;51.018;6.994;2023-02-11T02:35:47;6.20;99.90
4324;DHT22;2175;51.018;6.994;2023-02-11T02:38:46;6.20;99.90
4324;DHT22;2175;51.018;6.994;2023-02-11T02:41:20;6.10;99.90
4324;DHT22;2175;51.018;6.994;2023-02-11T02:43:49;6.10;99.90
4324;DHT22;2175;51.018;6.994;2023-02-11T02:46:22;6.10;99.90
4324;DHT22;2175;51.018;6.994;2023-02-11T02:48:49;6.10;99.90
4324;DHT22;2175;51.018;6.994;2023-02-11T02:56:58;6.10;99.90
4324;DHT22;2175;51.018;6.994;2023-02-11T03:02:46;6.10;99.90
4324;DHT22;2175;51.018;6.994;2023-02-11T03:08:24;6.10;99.90
4324;DHT22;2175;51.018;6.994;2023-02-11T03:10:52;6.10;99.90
4324;DHT22;2175;51.018;6.994;2023-02-11T03:13:21;6.20;99.90
4324;DHT22;2175;51.018;6.994;2023-02-11T03:15:51;6.20;99.90
4324;DHT22;2175;51.018;6.994;2023-02-11T03:18:21;6.20;99.90
4324;DHT22;2175;51.018;6.994;2023-02-11T03:20:50;6.20;99.90
4324;DHT22;2175;51.018;6.994;2023-02-11T03:23:34;6.30;99.90
4324;DHT22;2175;51.018;6.994;2023-02-11T03:26:08;6.30;99.90
4324;DHT22;2175;51.018;6.994;2023-02-11T03:31:25;6.40;99.90
4324;DHT22;2175;51.018;6.994;2023-02-11T03:34:13;6.40;99.90
4324;DHT22;2175;51.018;6.994;2023-02-11T03:39:18;6.50;99.90
4324;DHT22;2175;51.018;6.994;2023-02-11T03:41:46;6.50;99.90
4324;DHT22;2175;51.018;6.994;2023-02-11T03:44:14;6.50;99.90
4324;DHT22;2175;51.018;6.994;2023-02-11T03:46:44;6.40;99.90
4324;DHT22;2175;51.018;6.994;2023-02-11T03:49:14;6.40;99.90
4324;DHT22;2175;51.018;6.994;2023-02-11T03:51:40;6.40;99.90
4324;DHT22;2175;51.018;6.994;2023-02-11T03:54:10;6.40;99.90
4324;DHT22;2175;51.018;6.994;2023-02-11T03:56:48;6.40;99.90
4324;DHT22;2175;51.018;6.994;2023-02-11T03:59:15;6.50;99.90
4324;DHT22;2175;51.018;6.994;2023-02-11T04:01:41;6.40;99.90
4324;DHT22;2175;51.018;6.994;2023-02-11T04:04:06;6.50;99.90
4324;DHT22;2175;51.018;6.994;2023-02-11T04:06:32;6.40;99.90
4324;DHT22;2175;51.018;6.994;2023-02-11T04:08:57;6.40;99.90
4324;DHT22;2175;51.018;6.994;2023-02-11T04:11:23;6.40;99.90
4324;DHT22;2175;51.018;6.994;2023-02-11T04:13:49;6.40;99.90
4324;DHT22;2175;51.018;6.994;2023-02-11T04:16:15;6.40;99.90
4324;DHT22;2175;51.018;6.994;2023-02-11T04:18:40;6.40;99.90
4324;DHT22;2175;51.018;6.994;2023-02-11T04:21:06;6.40;99.90
4324;DHT22;2175;51.018;6.994;2023-02-11T04:23:32;6.40;99.90
4324;DHT22;2175;51.018;6.994;2023-02-11T04:25:58;6.40;99.90
4324;DHT22;2175;51.018;6.994;2023-02-11T04:28:23;6.50;99.90
4324;DHT22;2175;51.018;6.994;2023-02-11T04:30:51;6.30;99.90
4324;DHT22;2175;51.018;6.994;2023-02-11T04:33:16;6.30;99.90
4324;DHT22;2175;51.018;6.994;2023-02-11T04:35:42;6.30;99.90
4324;DHT22;2175;51.018;6.994;2023-02-11T04:38:08;6.40;99.90
4324;DHT22;2175;51.018;6.994;2023-02-11T04:40:33;6.30;99.90
4324;DHT22;2175;51.018;6.994;2023-02-11T04:42:59;6.40;99.90
4324;DHT22;2175;51.018;6.994;2023-02-11T04:45:24;6.40;99.90
4324;DHT22;2175;51.018;6.994;2023-02-11T04:47:50;6.40;99.90
4324;DHT22;2175;51.018;6.994;2023-02-11T04:50:16;6.40;99.90
4324;DHT22;2175;51.018;6.994;2023-02-11T04:52:42;6.40;99.90
4324;DHT22;2175;51.018;6.994;2023-02-11T04:55:07;6.30;99.90
4324;DHT22;2175;51.018;6.994;2023-02-11T04:57:33;6.40;99.90
4324;DHT22;2175;51.018;6.994;2023-02-11T04:59:58;6.40;99.90
4324;DHT22;2175;51.018;6.994;2023-02-11T05:02:24;6.40;99.90
4324;DHT22;2175;51.018;6.994;2023-02-11T05:04:50;6.40;99.90
4324;DHT22;2175;51.018;6.994;2023-02-11T05:07:15;6.40;99.90
4324;DHT22;2175;51.018;6.994;2023-02-11T05:09:41;6.40;99.90
4324;DHT22;2175;51.018;6.994;2023-02-11T05:12:06;6.40;99.90
4324;DHT22;2175;51.018;6.994;2023-02-11T05:14:32;6.40;99.90
4324;DHT22;2175;51.018;6.994;2023-02-11T05:16:58;6.40;99.90
4324;DHT22;2175;51.018;6.994;2023-02-11T05:19:23;6.50;99.90
4324;DHT22;2175;51.018;6.994;2023-02-11T05:21:49;6.50;99.90
4324;DHT22;2175;51.018;6.994;2023-02-11T05:24:14;6.50;99.90
4324;DHT22;2175;51.018;6.994;2023-02-11T05:26:40;6.50;99.90
4324;DHT22;2175;51.018;6.994;2023-02-11T05:29:06;6.50;99.90
4324;DHT22;2175;51.018;6.994;2023-02-11T05:31:31;6.50;99.90
4324;DHT22;2175;51.018;6.994;2023-02-11T05:33:57;6.60;99.90
4324;DHT22;2175;51.018;6.994;2023-02-11T05:36:23;6.60;99.90
4324;DHT22;2175;51.018;6.994;2023-02-11T05:38:49;6.40;99.90
4324;DHT22;2175;51.018;6.994;2023-02-11T05:41:15;6.50;99.90
4324;DHT22;2175;51.018;6.994;2023-02-11T05:43:41;6.60;99.90
4324;DHT22;2175;51.018;6.994;2023-02-11T05:46:07;6.60;99.90
4324;DHT22;2175;51.018;6.994;2023-02-11T05:48:32;6.50;99.90
4324;DHT22;2175;51.018;6.994;2023-02-11T05:50:58;6.50;99.90
4324;DHT22;2175;51.018;6.994;2023-02-11T05:53:24;6.50;99.90
4324;DHT22;2175;51.018;6.994;2023-02-11T05:55:49;6.40;99.90
4324;DHT22;2175;51.018;6.994;2023-02-11T05:58:15;6.40;99.90
4324;DHT22;2175;51.018;6.994;2023-02-11T06:00:41;6.40;99.90
4324;DHT22;2175;51.018;6.994;2023-02-11T06:03:06;6.40;99.90
4324;DHT22;2175;51.018;6.994;2023-02-11T06:05:32;6.30;99.90
4324;DHT22;2175;51.018;6.994;2023-02-11T06:07:58;6.30;99.90
4324;DHT22;2175;51.018;6.994;2023-02-11T06:10:27;6.30;99.90
4324;DHT22;2175;51.018;6.994;2023-02-11T06:12:52;6.20;99.90
4324;DHT22;2175;51.018;6.994;2023-02-11T06:15:18;6.20;99.90
4324;DHT22;2175;51.018;6.994;2023-02-11T06:17:43;6.30;99.90
4324;DHT22;2175;51.018;6.994;2023-02-11T06:20:09;6.20;99.90
4324;DHT22;2175;51.018;6.994;2023-02-11T06:22:35;6.20;99.90
4324;DHT22;2175;51.018;6.994;2023-02-11T06:25:01;6.20;99.90
4324;DHT22;2175;51.018;6.994;2023-02-11T06:27:27;6.30;99.90
4324;DHT22;2175;51.018;6.994;2023-02-11T06:29:52;6.30;99.90
4324;DHT22;2175;51.018;6.994;2023-02-11T06:32:18;6.40;99.90
4324;DHT22;2175;51.018;6.994;2023-02-11T06:34:44;6.30;99.90
4324;DHT22;2175;51.018;6.994;2023-02-11T06:37:10;6.40;99.90
4324;DHT22;2175;51.018;6.994;2023-02-11T06:39:36;6.40;99.90
4324;DHT22;2175;51.018;6.994;2023-02-11T06:42:02;6.40;99.90
4324;DHT22;2175;51.018;6.994;2023-02-11T06:44:28;6.40;99.90
4324;DHT22;2175;51.018;6.994;2023-02-11T06:46:53;6.30;99.90
4324;DHT22;2175;51.018;6.994;2023-02-11T06:49:19;6.40;99.90
4324;DHT22;2175;51.018;6.994;2023-02-11T06:51:44;6.50;99.90
4324;DHT22;2175;51.018;6.994;2023-02-11T06:54:11;6.50;99.90
4324;DHT22;2175;51.018;6.994;2023-02-11T06:56:39;6.40;99.90
4324;DHT22;2175;51.018;6.994;2023-02-11T06:59:05;6.50;99.90
4324;DHT22;2175;51.018;6.994;2023-02-11T07:01:30;6.40;99.90
4324;DHT22;2175;51.018;6.994;2023-02-11T07:03:56;6.40;99.90
4324;DHT22;2175;51.018;6.994;2023-02-11T07:06:24;6.60;99.90
4324;DHT22;2175;51.018;6.994;2023-02-11T07:08:52;6.60;99.90
4324;DHT22;2175;51.018;6.994;2023-02-11T07:11:22;6.50;99.90
4324;DHT22;2175;51.018;6.994;2023-02-11T07:13:54;6.50;99.90
4324;DHT22;2175;51.018;6.994;2023-02-11T07:16:21;6.60;99.90
4324;DHT22;2175;51.018;6.994;2023-02-11T07:18:48;6.50;99.90
4324;DHT22;2175;51.018;6.994;2023-02-11T07:21:16;6.60;99.90
4324;DHT22;2175;51.018;6.994;2023-02-11T07:23:42;6.60;99.90
4324;DHT22;2175;51.018;6.994;2023-02-11T07:26:10;6.60;99.90
4324;DHT22;2175;51.018;6.994;2023-02-11T07:28:37;6.60;99.90
4324;DHT22;2175;51.018;6.994;2023-02-11T07:31:23;6.70;99.90
4324;DHT22;2175;51.018;6.994;2023-02-11T07:33:51;6.60;99.90
4324;DHT22;2175;51.018;6.994;2023-02-11T07:36:18;6.60;99.90
4324;DHT22;2175;51.018;6.994;2023-02-11T07:38:55;6.60;99.90
4324;DHT22;2175;51.018;6.994;2023-02-11T07:41:21;6.70;99.90
4324;DHT22;2175;51.018;6.994;2023-02-11T07:43:48;6.70;99.90
4324;DHT22;2175;51.018;6.994;2023-02-11T07:46:21;6.70;99.90
4324;DHT22;2175;51.018;6.994;2023-02-11T07:48:47;6.80;99.90
4324;DHT22;2175;51.018;6.994;2023-02-11T07:51:19;6.80;99.90
4324;DHT22;2175;51.018;6.994;2023-02-11T07:53:45;6.70;99.90
4324;DHT22;2175;51.018;6.994;2023-02-11T07:56:12;6.80;99.90
4324;DHT22;2175;51.018;6.994;2023-02-11T07:58:41;6.70;99.90
4324;DHT22;2175;51.018;6.994;2023-02-11T08:01:10;6.60;99.90
4324;DHT22;2175;51.018;6.994;2023-02-11T08:03:38;6.70;99.90
4324;DHT22;2175;51.018;6.994;2023-02-11T08:06:09;6.70;99.90
4324;DHT22;2175;51.018;6.994;2023-02-11T08:08:35;6.80;99.90
4324;DHT22;2175;51.018;6.994;2023-02-11T08:11:09;6.80;99.90
4324;DHT22;2175;51.018;6.994;2023-02-11T08:13:35;6.80;99.90
4324;DHT22;2175;51.018;6.994;2023-02-11T08:16:01;6.70;99.90
4324;DHT22;2175;51.018;6.994;2023-02-11T08:18:26;6.60;99.90
4324;DHT22;2175;51.018;6.994;2023-02-11T08:20:52;6.50;99.90
4324;DHT22;2175;51.018;6.994;2023-02-11T08:23:17;6.50;99.90
4324;DHT22;2175;51.018;6.994;2023-02-11T08:25:46;6.50;99.90
4324;DHT22;2175;51.018;6.994;2023-02-11T08:28:11;6.50;99.90
4324;DHT22;2175;51.018;6.994;2023-02-11T08:30:37;6.50;99.90
4324;DHT22;2175;51.018;6.994;2023-02-11T08:33:02;6.50;99.90
4324;DHT22;2175;51.018;6.994;2023-02-11T08:35:28;6.50;99.90
4324;DHT22;2175;51.018;6.994;2023-02-11T08:37:54;6.60;99.90
4324;DHT22;2175;51.018;6.994;2023-02-11T08:40:19;6.60;99.90
4324;DHT22;2175;51.018;6.994;2023-02-11T08:42:45;6.50;99.90
4324;DHT22;2175;51.018;6.994;2023-02-11T08:45:10;6.60;99.90
4324;DHT22;2175;51.018;6.994;2023-02-11T08:47:37;6.50;99.90
4324;DHT22;2175;51.018;6.994;2023-02-11T08:50:03;6.50;99.90
4324;DHT22;2175;51.018;6.994;2023-02-11T08:52:29;6.50;99.90
4324;DHT22;2175;51.018;6.994;2023-02-11T08:54:55;6.50;99.90
4324;DHT22;2175;51.018;6.994;2023-02-11T08:57:21;6.60;99.90
4324;DHT22;2175;51.018;6.994;2023-02-11T08:59:46;6.50;99.90
4324;DHT22;2175;51.018;6.994;2023-02-11T09:02:13;6.50;99.90
4324;DHT22;2175;51.018;6.994;2023-02-11T09:04:45;6.50;99.90
4324;DHT22;2175;51.018;6.994;2023-02-11T09:07:11;6.50;99.90
4324;DHT22;2175;51.018;6.994;2023-02-11T09:09:37;6.60;99.90
4324;DHT22;2175;51.018;6.994;2023-02-11T09:12:03;6.60;99.90
4324;DHT22;2175;51.018;6.994;2023-02-11T09:14:28;6.60;99.90
4324;DHT22;2175;51.018;6.994;2023-02-11T09:16:54;6.60;99.90
4324;DHT22;2175;51.018;6.994;2023-02-11T09:19:20;6.60;99.90
4324;DHT22;2175;51.018;6.994;2023-02-11T09:21:46;6.60;99.90
4324;DHT22;2175;51.018;6.994;2023-02-11T09:24:11;6.60;99.90
4324;DHT22;2175;51.018;6.994;2023-02-11T09:26:37;6.60;99.90
4324;DHT22;2175;51.018;6.994;2023-02-11T09:29:05;6.60;99.90
4324;DHT22;2175;51.018;6.994;2023-02-11T09:31:33;6.60;99.90
4324;DHT22;2175;51.018;6.994;2023-02-11T09:34:05;6.70;99.90
4324;DHT22;2175;51.018;6.994;2023-02-11T09:36:34;6.70;99.90
4324;DHT22;2175;51.018;6.994;2023-02-11T09:39:04;6.70;99.90
4324;DHT22;2175;51.018;6.994;2023-02-11T09:44:14;6.80;99.90
4324;DHT22;2175;51.018;6.994;2023-02-11T09:46:42;6.80;99.90
4324;DHT22;2175;51.018;6.994;2023-02-11T09:49:18;6.80;99.90
4324;DHT22;2175;51.018;6.994;2023-02-11T09:51:50;6.90;99.90
4324;DHT22;2175;51.018;6.994;2023-02-11T09:54:30;7.00;99.90
4324;DHT22;2175;51.018;6.994;2023-02-11T09:56:58;6.80;99.90
4324;DHT22;2175;51.018;6.994;2023-02-11T09:59:24;6.80;99.90
4324;DHT22;2175;51.018;6.994;2023-02-11T10:02:01;6.80;99.90
4324;DHT22;2175;51.018;6.994;2023-02-11T10:07:24;6.90;99.90
4324;DHT22;2175;51.018;6.994;2023-02-11T10:10:28;6.90;99.90
4324;DHT22;2175;51.018;6.994;2023-02-11T10:15:46;7.00;99.90
4324;DHT22;2175;51.018;6.994;2023-02-11T10:23:35;6.90;99.90
4324;DHT22;2175;51.018;6.994;2023-02-11T10:26:13;7.00;99.90
4324;DHT22;2175;51.018;6.994;2023-02-11T10:28:41;7.00;99.90
4324;DHT22;2175;51.018;6.994;2023-02-11T10:33:46;7.00;99.90
4324;DHT22;2175;51.018;6.994;2023-02-11T10:36:15;7.00;99.90
4324;DHT22;2175;51.018;6.994;2023-02-11T10:38:42;7.10;99.90
4324;DHT22;2175;51.018;6.994;2023-02-11T10:41:21;7.20;99.90
4324;DHT22;2175;51.018;6.994;2023-02-11T10:43:48;7.10;99.90
4324;DHT22;2175;51.018;6.994;2023-02-11T10:46:18;7.00;99.90
4324;DHT22;2175;51.018;6.994;2023-02-11T10:48:51;7.10;99.90
4324;DHT22;2175;51.018;6.994;2023-02-11T10:51:22;7.10;99.90
4324;DHT22;2175;51.018;6.994;2023-02-11T10:56:30;7.10;99.90
4324;DHT22;2175;51.018;6.994;2023-02-11T11:01:23;7.30;99.90
4324;DHT22;2175;51.018;6.994;2023-02-11T11:03:49;7.30;99.90
4324;DHT22;2175;51.018;6.994;2023-02-11T11:06:28;7.40;99.90
4324;DHT22;2175;51.018;6.994;2023-02-11T11:08:55;7.30;99.90
4324;DHT22;2175;51.018;6.994;2023-02-11T11:11:22;7.30;99.90
4324;DHT22;2175;51.018;6.994;2023-02-11T11:16:33;7.30;99.90
4324;DHT22;2175;51.018;6.994;2023-02-11T11:21:55;7.30;99.90
4324;DHT22;2175;51.018;6.994;2023-02-11T11:24:26;7.40;99.90
4324;DHT22;2175;51.018;6.994;2023-02-11T11:26:57;7.50;99.90
4324;DHT22;2175;51.018;6.994;2023-02-11T11:29:38;7.60;99.90
4324;DHT22;2175;51.018;6.994;2023-02-11T11:32:19;7.60;99.90
4324;DHT22;2175;51.018;6.994;2023-02-11T11:34:51;7.60;99.90
4324;DHT22;2175;51.018;6.994;2023-02-11T11:37:30;7.70;99.90
4324;DHT22;2175;51.018;6.994;2023-02-11T11:40:21;7.80;99.90
4324;DHT22;2175;51.018;6.994;2023-02-11T11:43:21;7.80;99.90
4324;DHT22;2175;51.018;6.994;2023-02-11T11:45:57;7.80;99.90
4324;DHT22;2175;51.018;6.994;2023-02-11T11:51:01;8.00;99.90
4324;DHT22;2175;51.018;6.994;2023-02-11T11:56:21;8.00;99.90
4324;DHT22;2175;51.018;6.994;2023-02-11T11:58:47;8.00;99.90
4324;DHT22;2175;51.018;6.994;2023-02-11T12:12:23;7.90;99.90
4324;DHT22;2175;51.018;6.994;2023-02-11T12:17:39;7.90;99.90
4324;DHT22;2175;51.018;6.994;2023-02-11T12:20:14;7.90;99.90
4324;DHT22;2175;51.018;6.994;2023-02-11T12:28:26;7.90;99.90
4324;DHT22;2175;51.018;6.994;2023-02-11T12:36:14;8.00;99.90
4324;DHT22;2175;51.018;6.994;2023-02-11T12:39:01;7.90;99.90
4324;DHT22;2175;51.018;6.994;2023-02-11T12:47:24;8.00;99.90
4324;DHT22;2175;51.018;6.994;2023-02-11T12:50:03;8.00;99.90
4324;DHT22;2175;51.018;6.994;2023-02-11T12:55:20;8.00;99.90
4324;DHT22;2175;51.018;6.994;2023-02-11T12:57:48;8.00;99.90
4324;DHT22;2175;51.018;6.994;2023-02-11T13:00:27;7.70;99.90
4324;DHT22;2175;51.018;6.994;2023-02-11T13:06:12;7.60;99.90
4324;DHT22;2175;51.018;6.994;2023-02-11T13:08:47;7.50;99.90
4324;DHT22;2175;51.018;6.994;2023-02-11T13:11:20;7.50;99.90
4324;DHT22;2175;51.018;6.994;2023-02-11T13:16:37;7.60;99.90
4324;DHT22;2175;51.018;6.994;2023-02-11T13:29:56;7.60;99.90
4324;DHT22;2175;51.018;6.994;2023-02-11T13:35:47;7.70;99.90
4324;DHT22;2175;51.018;6.994;2023-02-11T13:38:25;7.70;99.90
4324;DHT22;2175;51.018;6.994;2023-02-11T13:41:22;7.90;99.90
4324;DHT22;2175;51.018;6.994;2023-02-11T13:49:34;7.80;99.90
4324;DHT22;2175;51.018;6.994;2023-02-11T13:52:04;7.90;99.90
4324;DHT22;2175;51.018;6.994;2023-02-11T13:54:36;8.00;99.90
4324;DHT22;2175;51.018;6.994;2023-02-11T14:10:54;8.20;99.90
4324;DHT22;2175;51.018;6.994;2023-02-11T14:13:31;8.20;99.90
4324;DHT22;2175;51.018;6.994;2023-02-11T14:16:15;8.10;99.90
4324;DHT22;2175;51.018;6.994;2023-02-11T14:18:58;8.10;99.90
4324;DHT22;2175;51.018;6.994;2023-02-11T14:26:49;8.00;99.90
4324;DHT22;2175;51.018;6.994;2023-02-11T14:32:21;8.00;99.90
4324;DHT22;2175;51.018;6.994;2023-02-11T14:41:00;8.10;99.90
4324;DHT22;2175;51.018;6.994;2023-02-11T14:43:37;8.00;99.90
4324;DHT22;2175;51.018;6.994;2023-02-11T14:46:04;8.10;99.90
4324;DHT22;2175;51.018;6.994;2023-02-11T14:48:32;8.20;99.90
4324;DHT22;2175;51.018;6.994;2023-02-11T14:51:12;8.30;99.90
4324;DHT22;2175;51.018;6.994;2023-02-11T14:53:44;8.40;99.90
4324;DHT22;2175;51.018;6.994;2023-02-11T14:56:22;8.30;99.90
4324;DHT22;2175;51.018;6.994;2023-02-11T14:58:52;8.30;99.90
4324;DHT22;2175;51.018;6.994;2023-02-11T15:01:24;8.30;99.90
4324;DHT22;2175;51.018;6.994;2023-02-11T15:04:25;8.30;99.90
4324;DHT22;2175;51.018;6.994;2023-02-11T15:06:51;8.30;99.90
4324;DHT22;2175;51.018;6.994;2023-02-11T15:09:22;8.20;99.90
4324;DHT22;2175;51.018;6.994;2023-02-11T15:11:53;8.20;99.90
4324;DHT22;2175;51.018;6.994;2023-02-11T15:14:29;8.20;99.90
4324;DHT22;2175;51.018;6.994;2023-02-11T15:16:57;8.40;99.90
4324;DHT22;2175;51.018;6.994;2023-02-11T15:19:33;8.50;99.90
4324;DHT22;2175;51.018;6.994;2023-02-11T15:22:02;8.40;99.90
4324;DHT22;2175;51.018;6.994;2023-02-11T15:24:33;8.40;99.90
4324;DHT22;2175;51.018;6.994;2023-02-11T15:27:10;8.40;99.90
4324;DHT22;2175;51.018;6.994;2023-02-11T15:29:46;8.40;99.90
4324;DHT22;2175;51.018;6.994;2023-02-11T15:32:15;8.50;99.90
4324;DHT22;2175;51.018;6.994;2023-02-11T15:34:42;8.50;99.90
4324;DHT22;2175;51.018;6.994;2023-02-11T15:37:23;8.50;99.90
4324;DHT22;2175;51.018;6.994;2023-02-11T15:39:51;8.50;99.90
4324;DHT22;2175;51.018;6.994;2023-02-11T15:44:44;8.60;99.90
4324;DHT22;2175;51.018;6.994;2023-02-11T15:47:18;8.70;99.90
4324;DHT22;2175;51.018;6.994;2023-02-11T15:49:45;8.70;99.90
4324;DHT22;2175;51.018;6.994;2023-02-11T15:52:13;8.70;99.90
4324;DHT22;2175;51.018;6.994;2023-02-11T15:54:45;8.70;99.90
4324;DHT22;2175;51.018;6.994;2023-02-11T15:57:11;8.60;99.90
4324;DHT22;2175;51.018;6.994;2023-02-11T15:59:39;8.60;99.90
4324;DHT22;2175;51.018;6.994;2023-02-11T16:02:30;8.60;99.90
4324;DHT22;2175;51.018;6.994;2023-02-11T16:05:05;8.60;99.90
4324;DHT22;2175;51.018;6.994;2023-02-11T16:10:20;8.50;99.90
4324;DHT22;2175;51.018;6.994;2023-02-11T16:18:11;8.50;99.90
4324;DHT22;2175;51.018;6.994;2023-02-11T16:20:37;8.50;99.90
4324;DHT22;2175;51.018;6.994;2023-02-11T16:23:04;8.40;99.90
4324;DHT22;2175;51.018;6.994;2023-02-11T16:25:31;8.30;99.90
4324;DHT22;2175;51.018;6.994;2023-02-11T16:27:59;8.40;99.90
4324;DHT22;2175;51.018;6.994;2023-02-11T16:32:51;8.30;99.90
4324;DHT22;2175;51.018;6.994;2023-02-11T16:35:17;8.20;99.90
4324;DHT22;2175;51.018;6.994;2023-02-11T16:37:46;8.20;99.90
4324;DHT22;2175;51.018;6.994;2023-02-11T16:40:12;8.20;99.90
4324;DHT22;2175;51.018;6.994;2023-02-11T16:42:37;8.20;99.90
4324;DHT22;2175;51.018;6.994;2023-02-11T16:45:03;8.20;99.90
4324;DHT22;2175;51.018;6.994;2023-02-11T16:47:29;8.20;99.90
4324;DHT22;2175;51.018;6.994;2023-02-11T16:49:56;8.20;99.90
4324;DHT22;2175;51.018;6.994;2023-02-11T16:52:25;8.20;99.90
4324;DHT22;2175;51.018;6.994;2023-02-11T16:54:51;8.20;99.90
4324;DHT22;2175;51.018;6.994;2023-02-11T16:57:22;8.30;99.90
4324;DHT22;2175;51.018;6.994;2023-02-11T16:59:49;8.30;99.90
4324;DHT22;2175;51.018;6.994;2023-02-11T17:02:19;8.20;99.90
4324;DHT22;2175;51.018;6.994;2023-02-11T17:04:47;8.20;99.90
4324;DHT22;2175;51.018;6.994;2023-02-11T17:07:13;8.10;99.90
4324;DHT22;2175;51.018;6.994;2023-02-11T17:09:38;8.00;99.90
4324;DHT22;2175;51.018;6.994;2023-02-11T17:12:04;8.10;99.90
4324;DHT22;2175;51.018;6.994;2023-02-11T17:14:30;8.10;99.90
4324;DHT22;2175;51.018;6.994;2023-02-11T17:16:56;8.10;99.90
4324;DHT22;2175;51.018;6.994;2023-02-11T17:19:22;8.00;99.90
4324;DHT22;2175;51.018;6.994;2023-02-11T17:21:50;7.90;99.90
4324;DHT22;2175;51.018;6.994;2023-02-11T17:24:16;7.90;99.90
4324;DHT22;2175;51.018;6.994;2023-02-11T17:26:44;7.90;99.90
4324;DHT22;2175;51.018;6.994;2023-02-11T17:29:12;8.00;99.90
4324;DHT22;2175;51.018;6.994;2023-02-11T17:31:39;7.90;99.90
4324;DHT22;2175;51.018;6.994;2023-02-11T17:34:05;7.90;99.90
4324;DHT22;2175;51.018;6.994;2023-02-11T17:36:31;7.80;99.90
4324;DHT22;2175;51.018;6.994;2023-02-11T17:38:58;7.80;99.90
4324;DHT22;2175;51.018;6.994;2023-02-11T17:41:24;7.80;99.90
4324;DHT22;2175;51.018;6.994;2023-02-11T17:43:50;7.80;99.90
4324;DHT22;2175;51.018;6.994;2023-02-11T17:46:16;7.90;99.90
4324;DHT22;2175;51.018;6.994;2023-02-11T17:48:43;8.00;99.90
4324;DHT22;2175;51.018;6.994;2023-02-11T17:51:24;8.00;99.90
4324;DHT22;2175;51.018;6.994;2023-02-11T17:53:50;8.00;99.90
4324;DHT22;2175;51.018;6.994;2023-02-11T17:56:17;8.00;99.90
4324;DHT22;2175;51.018;6.994;2023-02-11T17:58:43;8.10;99.90
4324;DHT22;2175;51.018;6.994;2023-02-11T18:01:08;8.10;99.90
4324;DHT22;2175;51.018;6.994;2023-02-11T18:03:34;8.00;99.90
4324;DHT22;2175;51.018;6.994;2023-02-11T18:06:01;8.00;99.90
4324;DHT22;2175;51.018;6.994;2023-02-11T18:08:27;7.90;99.90
4324;DHT22;2175;51.018;6.994;2023-02-11T18:10:53;8.00;99.90
4324;DHT22;2175;51.018;6.994;2023-02-11T18:13:23;7.90;99.90
4324;DHT22;2175;51.018;6.994;2023-02-11T18:15:49;8.00;99.90
4324;DHT22;2175;51.018;6.994;2023-02-11T18:18:15;8.10;99.90
4324;DHT22;2175;51.018;6.994;2023-02-11T18:20:41;8.20;99.90
4324;DHT22;2175;51.018;6.994;2023-02-11T18:23:11;8.10;99.90
4324;DHT22;2175;51.018;6.994;2023-02-11T18:25:40;8.10;99.90
4324;DHT22;2175;51.018;6.994;2023-02-11T18:28:05;8.10;99.90
4324;DHT22;2175;51.018;6.994;2023-02-11T18:30:33;8.00;99.90
4324;DHT22;2175;51.018;6.994;2023-02-11T18:32:59;8.00;99.90
4324;DHT22;2175;51.018;6.994;2023-02-11T18:35:24;8.00;99.90
4324;DHT22;2175;51.018;6.994;2023-02-11T18:37:50;8.00;99.90
4324;DHT22;2175;51.018;6.994;2023-02-11T18:40:16;8.00;99.90
4324;DHT22;2175;51.018;6.994;2023-02-11T18:42:44;8.00;99.90
4324;DHT22;2175;51.018;6.994;2023-02-11T18:45:11;8.00;99.90
4324;DHT22;2175;51.018;6.994;2023-02-11T18:47:37;8.00;99.90
4324;DHT22;2175;51.018;6.994;2023-02-11T18:50:05;8.00;99.90
4324;DHT22;2175;51.018;6.994;2023-02-11T18:52:32;7.90;99.90
4324;DHT22;2175;51.018;6.994;2023-02-11T18:54:58;7.90;99.90
4324;DHT22;2175;51.018;6.994;2023-02-11T18:57:24;7.80;99.90
4324;DHT22;2175;51.018;6.994;2023-02-11T18:59:49;7.80;99.90
4324;DHT22;2175;51.018;6.994;2023-02-11T19:02:18;7.90;99.90
4324;DHT22;2175;51.018;6.994;2023-02-11T19:04:44;7.90;99.90
4324;DHT22;2175;51.018;6.994;2023-02-11T19:07:09;7.90;99.90
4324;DHT22;2175;51.018;6.994;2023-02-11T19:09:55;7.90;99.90
4324;DHT22;2175;51.018;6.994;2023-02-11T19:12:31;7.90;99.90
4324;DHT22;2175;51.018;6.994;2023-02-11T19:15:02;8.00;99.90
4324;DHT22;2175;51.018;6.994;2023-02-11T19:17:32;8.10;99.90